Time;durP1;ratioP1;P1;durP2;ratioP2;P2;SDS_P1;SDS_P2;PMS_P1;PMS_P2;Temp;Humidity;BMP_temperature;BMP_pressure;BME280_temperature;BME280_humidity;BME280_pressure;Samples;Min_cycle;Max_cycle;Signal;HPM_P1;HPM_P2
2023/07/13 00:01:56;;;;;;;4.63;3.57;;;19.90;99.90;;;;;;5016316;28;20812;-68
2023/07/13 00:04:24;;;;;;;5.50;3.53;;;19.90;99.90;;;;;;5035947;28;20474;-69
2023/07/13 00:06:55;;;;;;;4.50;3.13;;;19.90;99.90;;;;;;5036335;28;20436;-69
2023/07/13 00:09:22;;;;;;;4.60;3.50;;;19.90;99.90;;;;;;5036160;28;20465;-69
2023/07/13 00:11:52;;;;;;;6.17;4.13;;;19.90;99.90;;;;;;5036085;28;20551;-68
2023/07/13 00:14:21;;;;;;;5.13;3.30;;;19.90;99.90;;;;;;5035228;28;20999;-69
2023/07/13 00:16:48;;;;;;;4.90;4.07;;;19.90;99.90;;;;;;4996739;28;20446;-68
2023/07/13 00:19:16;;;;;;;7.50;3.90;;;19.80;99.90;;;;;;4996022;28;20802;-68
2023/07/13 00:21:43;;;;;;;7.47;3.33;;;19.90;99.90;;;;;;4996486;28;20519;-68
2023/07/13 00:24:13;;;;;;;7.67;3.77;;;19.90;99.90;;;;;;4996551;28;20462;-68
2023/07/13 00:26:40;;;;;;;7.80;4.17;;;19.80;99.90;;;;;;5033727;28;20941;-68
2023/07/13 00:29:08;;;;;;;6.20;4.10;;;19.80;99.90;;;;;;5035987;28;20537;-68
2023/07/13 00:31:37;;;;;;;4.07;3.47;;;19.80;99.90;;;;;;5035868;28;20476;-69
2023/07/13 00:34:09;;;;;;;5.10;2.90;;;19.80;99.90;;;;;;5035649;28;20831;-68
2023/07/13 00:36:36;;;;;;;4.80;3.00;;;19.80;99.90;;;;;;5017192;28;20518;-68
2023/07/13 00:39:04;;;;;;;5.47;3.97;;;19.70;99.90;;;;;;5015924;28;20785;-68
2023/07/13 00:41:32;;;;;;;4.80;3.77;;;19.70;99.90;;;;;;5015496;28;20502;-69
2023/07/13 00:43:59;;;;;;;4.20;3.23;;;19.70;99.90;;;;;;5015261;28;20533;-68
2023/07/13 00:46:28;;;;;;;6.17;3.60;;;19.60;99.90;;;;;;5018110;28;20450;-70
2023/07/13 00:49:00;;;;;;;4.90;3.50;;;19.60;99.90;;;;;;5015624;28;20448;-68
2023/07/13 00:51:31;;;;;;;5.73;3.80;;;19.60;99.90;;;;;;5015580;28;20458;-68
2023/07/13 00:54:04;;;;;;;6.43;3.30;;;19.60;99.90;;;;;;5015835;28;20466;-69
2023/07/13 00:56:32;;;;;;;6.20;3.57;;;19.60;99.90;;;;;;5017210;28;20442;-68
2023/07/13 00:59:01;;;;;;;5.70;3.50;;;19.60;99.90;;;;;;5015311;28;20430;-68
2023/07/13 01:01:28;;;;;;;4.47;3.30;;;19.60;99.90;;;;;;5015085;28;20500;-69
2023/07/13 01:03:57;;;;;;;5.50;3.03;;;19.60;99.90;;;;;;5015492;28;20449;-68
2023/07/13 01:06:24;;;;;;;4.87;3.83;;;19.60;99.90;;;;;;5029166;28;20444;-68
2023/07/13 01:08:51;;;;;;;5.90;3.23;;;19.50;99.90;;;;;;5035122;28;20441;-68
2023/07/13 01:11:22;;;;;;;5.17;3.57;;;19.50;99.90;;;;;;5034397;28;20560;-68
2023/07/13 01:13:49;;;;;;;4.37;3.47;;;19.50;99.90;;;;;;5034987;28;20482;-68
2023/07/13 01:16:25;;;;;;;7.67;4.00;;;19.50;99.90;;;;;;5019754;28;20482;-70
2023/07/13 01:18:52;;;;;;;4.90;3.40;;;19.50;99.90;;;;;;5015046;28;20419;-68
2023/07/13 01:21:21;;;;;;;5.60;3.17;;;19.50;99.90;;;;;;5014889;28;20539;-68
2023/07/13 01:23:48;;;;;;;6.47;4.30;;;19.50;99.90;;;;;;5014397;28;20937;-68
2023/07/13 01:26:15;;;;;;;6.27;4.57;;;19.50;99.90;;;;;;5028910;28;20461;-68
2023/07/13 01:28:42;;;;;;;6.60;5.10;;;19.50;99.90;;;;;;5034768;28;20522;-70
2023/07/13 01:31:10;;;;;;;7.20;4.80;;;19.50;99.90;;;;;;5033654;28;20477;-70
2023/07/13 01:33:39;;;;;;;5.77;4.20;;;19.50;99.90;;;;;;5034449;28;20469;-68
2023/07/13 01:36:06;;;;;;;5.63;4.43;;;19.50;99.90;;;;;;5020485;28;20447;-68
2023/07/13 01:38:36;;;;;;;5.33;4.00;;;19.50;99.90;;;;;;5014699;28;20484;-68
2023/07/13 01:41:03;;;;;;;7.00;4.00;;;19.50;99.90;;;;;;5014458;28;20512;-69
2023/07/13 01:43:30;;;;;;;4.73;3.60;;;19.50;99.90;;;;;;5014466;28;20449;-68
2023/07/13 01:45:57;;;;;;;5.03;3.70;;;19.40;99.90;;;;;;5025554;28;20447;-68
2023/07/13 01:48:24;;;;;;;10.50;3.40;;;19.30;99.90;;;;;;5033801;28;20533;-68
2023/07/13 01:50:51;;;;;;;5.93;3.77;;;19.30;99.90;;;;;;5033667;28;20485;-69
2023/07/13 01:53:18;;;;;;;6.40;4.10;;;19.30;99.90;;;;;;5033749;28;20557;-68
2023/07/13 01:55:46;;;;;;;9.53;4.23;;;19.30;99.90;;;;;;5023542;28;20529;-68
2023/07/13 01:58:13;;;;;;;6.27;5.10;;;19.30;99.90;;;;;;5014122;28;20517;-68
2023/07/13 02:00:40;;;;;;;6.97;4.33;;;19.20;99.90;;;;;;5014022;28;20534;-68
2023/07/13 02:03:07;;;;;;;5.03;4.10;;;19.20;99.90;;;;;;5014211;28;20474;-68
2023/07/13 02:05:34;;;;;;;10.23;3.60;;;19.20;99.90;;;;;;5014147;28;20532;-68
2023/07/13 02:08:01;;;;;;;7.93;4.40;;;19.20;99.90;;;;;;5014231;28;20526;-68
2023/07/13 02:10:29;;;;;;;6.87;3.67;;;19.30;99.90;;;;;;5013785;28;20523;-68
2023/07/13 02:12:57;;;;;;;4.87;3.93;;;19.30;99.90;;;;;;5014131;28;20439;-68
2023/07/13 02:15:24;;;;;;;5.37;3.93;;;19.20;99.90;;;;;;5013415;28;20524;-68
2023/07/13 02:17:56;;;;;;;4.83;3.23;;;19.20;99.90;;;;;;5013744;28;20862;-69
2023/07/13 02:20:23;;;;;;;8.20;3.57;;;19.20;99.90;;;;;;5014055;28;20841;-68
2023/07/13 02:22:50;;;;;;;3.60;2.53;;;19.20;99.90;;;;;;5013978;28;20477;-68
2023/07/13 02:25:17;;;;;;;4.73;3.17;;;19.20;99.90;;;;;;5017409;28;20532;-68
2023/07/13 02:27:44;;;;;;;6.27;3.90;;;19.20;99.90;;;;;;5032807;28;20442;-68
2023/07/13 02:30:13;;;;;;;5.80;3.93;;;19.20;99.90;;;;;;5030615;28;20517;-68
2023/07/13 02:32:40;;;;;;;4.10;3.20;;;19.30;99.90;;;;;;5031427;28;20519;-71
2023/07/13 02:35:07;;;;;;;4.93;3.30;;;19.20;99.90;;;;;;5033175;28;20517;-69
2023/07/13 02:37:34;;;;;;;4.90;4.03;;;19.30;99.90;;;;;;5032510;28;20440;-68
2023/07/13 02:40:03;;;;;;;7.40;3.60;;;19.30;99.90;;;;;;4993673;28;20532;-73
2023/07/13 02:42:30;;;;;;;6.23;3.70;;;19.30;99.90;;;;;;5032705;28;20434;-68
2023/07/13 02:44:56;;;;;;;7.90;4.23;;;19.30;99.90;;;;;;5033404;28;20875;-69
2023/07/13 02:47:25;;;;;;;6.30;3.50;;;19.30;99.90;;;;;;5033434;28;20515;-69
2023/07/13 02:49:52;;;;;;;5.37;4.47;;;19.30;99.90;;;;;;5033420;28;20436;-68
2023/07/13 02:52:19;;;;;;;8.30;4.87;;;19.30;99.90;;;;;;5014622;28;20478;-68
2023/07/13 02:54:46;;;;;;;9.50;4.47;;;19.30;99.90;;;;;;5013221;28;20992;-68
2023/07/13 02:57:13;;;;;;;4.73;3.63;;;19.30;99.90;;;;;;5013708;28;20489;-68
2023/07/13 02:59:40;;;;;;;6.77;4.20;;;19.40;99.90;;;;;;5013549;28;20532;-68
2023/07/13 03:02:08;;;;;;;5.97;3.10;;;19.40;99.90;;;;;;5029055;28;20540;-69
2023/07/13 03:04:38;;;;;;;5.20;3.77;;;19.30;99.90;;;;;;5033310;28;20778;-68
2023/07/13 03:07:05;;;;;;;7.90;3.13;;;19.30;99.90;;;;;;5033479;28;20472;-68
2023/07/13 03:09:35;;;;;;;5.00;4.00;;;19.30;99.90;;;;;;5024483;28;20449;-68
2023/07/13 03:12:02;;;;;;;9.73;4.00;;;19.30;99.90;;;;;;5027872;28;20559;-68
2023/07/13 03:14:30;;;;;;;6.80;3.73;;;19.30;99.90;;;;;;5033096;28;20482;-69
2023/07/13 03:16:57;;;;;;;5.10;3.47;;;19.30;99.90;;;;;;5033183;28;21015;-68
2023/07/13 03:19:24;;;;;;;6.63;3.63;;;19.30;99.90;;;;;;5032671;28;20525;-69
2023/07/13 03:21:52;;;;;;;6.13;3.83;;;19.30;99.90;;;;;;5018715;28;20517;-68
2023/07/13 03:24:20;;;;;;;6.80;3.40;;;19.30;99.90;;;;;;5013096;28;20991;-69
2023/07/13 03:26:47;;;;;;;4.93;3.33;;;19.30;99.90;;;;;;5012906;28;20952;-69
2023/07/13 03:29:14;;;;;;;6.50;3.33;;;19.30;99.90;;;;;;5013468;28;20473;-69
2023/07/13 03:31:41;;;;;;;6.33;3.80;;;19.30;99.90;;;;;;5024098;28;20524;-69
2023/07/13 03:34:08;;;;;;;5.00;4.10;;;19.30;99.90;;;;;;5032611;28;20480;-69
2023/07/13 03:36:35;;;;;;;5.23;3.90;;;19.30;99.90;;;;;;5032820;28;20444;-69
2023/07/13 03:39:08;;;;;;;9.97;3.53;;;19.30;99.90;;;;;;5032950;28;20449;-69
2023/07/13 03:41:35;;;;;;;6.33;4.20;;;19.40;99.90;;;;;;5021609;28;20510;-69
2023/07/13 03:44:02;;;;;;;8.93;4.33;;;19.40;99.90;;;;;;5013210;28;20548;-72
2023/07/13 03:46:29;;;;;;;7.10;4.27;;;19.40;99.90;;;;;;5012846;28;20529;-69
2023/07/13 03:48:56;;;;;;;5.37;3.57;;;19.40;99.90;;;;;;5012733;28;20446;-69
2023/07/13 03:51:23;;;;;;;6.50;3.90;;;19.40;99.90;;;;;;5021381;28;20529;-69
2023/07/13 03:53:51;;;;;;;3.67;2.93;;;19.40;99.90;;;;;;5032026;28;20967;-69
2023/07/13 03:56:20;;;;;;;5.73;3.67;;;19.40;99.90;;;;;;5036081;28;20445;-69
2023/07/13 03:58:49;;;;;;;6.77;4.07;;;19.40;99.90;;;;;;5036337;28;20466;-69
2023/07/13 04:01:17;;;;;;;4.70;3.80;;;19.50;99.90;;;;;;5027808;28;20474;-69
2023/07/13 04:03:46;;;;;;;4.70;3.53;;;19.50;99.90;;;;;;5016199;28;20445;-69
2023/07/13 04:06:20;;;;;;;7.90;3.73;;;19.40;99.90;;;;;;5016398;28;20438;-69
2023/07/13 04:08:50;;;;;;;5.10;3.83;;;19.40;99.90;;;;;;5016043;28;20488;-69
2023/07/13 04:11:18;;;;;;;5.80;4.17;;;19.40;99.90;;;;;;5023392;28;20502;-69
2023/07/13 04:13:46;;;;;;;8.93;4.00;;;19.50;99.90;;;;;;5035247;28;20444;-69
2023/07/13 04:16:13;;;;;;;5.53;3.83;;;19.50;99.90;;;;;;5036034;28;20453;-69
2023/07/13 04:18:41;;;;;;;6.07;3.80;;;19.50;99.90;;;;;;5036073;28;20531;-69
2023/07/13 04:21:08;;;;;;;5.57;4.17;;;19.50;99.90;;;;;;5029045;28;20526;-69
2023/07/13 04:23:35;;;;;;;5.70;4.03;;;19.50;99.90;;;;;;5031174;28;20524;-69
2023/07/13 04:26:02;;;;;;;7.70;4.07;;;19.50;99.90;;;;;;5035459;28;20450;-69
2023/07/13 04:28:30;;;;;;;5.83;4.30;;;19.60;99.90;;;;;;5035943;28;20526;-69
2023/07/13 04:30:57;;;;;;;7.10;3.80;;;19.60;99.90;;;;;;5029889;28;20810;-69
2023/07/13 04:33:24;;;;;;;5.83;4.33;;;19.60;99.90;;;;;;5016047;28;20853;-69
2023/07/13 04:35:56;;;;;;;5.10;4.60;;;19.60;99.90;;;;;;5015701;28;20481;-69
2023/07/13 04:38:24;;;;;;;5.27;3.67;;;19.60;99.90;;;;;;5013622;28;20528;-68
2023/07/13 04:40:51;;;;;;;7.73;4.27;;;19.60;99.90;;;;;;5018255;28;20442;-69
2023/07/13 04:43:18;;;;;;;8.97;3.40;;;19.50;99.90;;;;;;5034588;28;20528;-70
2023/07/13 04:45:47;;;;;;;5.03;3.43;;;19.50;99.90;;;;;;5034268;28;20448;-69
2023/07/13 04:48:14;;;;;;;11.33;4.20;;;19.60;99.90;;;;;;5034539;28;20499;-69
2023/07/13 04:50:41;;;;;;;10.53;4.10;;;19.50;99.90;;;;;;5031869;28;21008;-69
2023/07/13 04:53:07;;;;;;;5.60;4.43;;;19.50;99.90;;;;;;5014931;28;20615;-70
2023/07/13 04:55:34;;;;;;;5.23;3.30;;;19.60;99.90;;;;;;5014671;28;20488;-69
2023/07/13 04:58:02;;;;;;;7.57;4.60;;;19.60;99.90;;;;;;5025795;28;20963;-69
2023/07/13 05:00:30;;;;;;;6.07;4.50;;;19.60;99.90;;;;;;5034225;28;20979;-69
2023/07/13 05:02:59;;;;;;;5.83;4.50;;;19.50;99.90;;;;;;5034486;28;20529;-69
2023/07/13 05:05:27;;;;;;;5.90;4.33;;;19.50;99.90;;;;;;5034465;28;20444;-68
2023/07/13 05:07:54;;;;;;;8.20;4.50;;;19.60;99.90;;;;;;5032475;28;20439;-69
2023/07/13 05:10:22;;;;;;;4.37;3.80;;;19.50;99.90;;;;;;5033819;28;20536;-70
2023/07/13 05:12:49;;;;;;;6.73;4.33;;;19.50;99.90;;;;;;5034414;28;20429;-68
2023/07/13 05:15:20;;;;;;;7.50;4.07;;;19.50;99.90;;;;;;5031388;28;20608;-69
2023/07/13 05:17:48;;;;;;;6.90;4.17;;;19.40;99.90;;;;;;5033704;28;20437;-68
2023/07/13 05:20:17;;;;;;;8.07;4.50;;;19.40;99.90;;;;;;5034094;28;20516;-69
2023/07/13 05:22:46;;;;;;;6.90;4.60;;;19.30;99.90;;;;;;5034302;28;20773;-68
2023/07/13 05:25:13;;;;;;;5.03;3.20;;;19.30;99.90;;;;;;5019472;28;20442;-69
2023/07/13 05:27:40;;;;;;;5.07;4.23;;;19.40;99.90;;;;;;5014239;28;20439;-71
2023/07/13 05:30:10;;;;;;;5.07;4.27;;;19.40;99.90;;;;;;5014355;28;20825;-69
2023/07/13 05:32:37;;;;;;;5.00;3.60;;;19.40;99.90;;;;;;5014208;28;20457;-69
2023/07/13 05:35:05;;;;;;;8.23;4.57;;;19.40;99.90;;;;;;5026014;28;20557;-69
2023/07/13 05:37:33;;;;;;;6.10;4.27;;;19.50;99.90;;;;;;5033904;28;20448;-69
2023/07/13 05:40:00;;;;;;;5.53;3.90;;;19.60;99.90;;;;;;5033983;28;20540;-68
2023/07/13 05:42:27;;;;;;;9.13;5.03;;;19.60;99.90;;;;;;5033635;28;20528;-68
2023/07/13 05:44:54;;;;;;;6.83;4.83;;;19.60;99.90;;;;;;5026361;28;20865;-69
2023/07/13 05:47:21;;;;;;;7.30;4.87;;;19.60;99.90;;;;;;5013652;28;20445;-69
2023/07/13 05:49:48;;;;;;;4.30;3.40;;;19.70;99.90;;;;;;5016864;28;20446;-69
2023/07/13 05:52:14;;;;;;;4.63;3.87;;;19.80;99.90;;;;;;5013973;28;20540;-68
2023/07/13 05:54:43;;;;;;;5.63;4.23;;;19.90;99.90;;;;;;5013674;28;20562;-69
2023/07/13 05:57:10;;;;;;;7.03;5.10;;;20.00;99.90;;;;;;5009922;28;20990;-69
2023/07/13 05:59:37;;;;;;;7.23;4.87;;;20.00;99.90;;;;;;5013444;28;20492;-69
2023/07/13 06:02:05;;;;;;;6.17;4.53;;;20.10;99.90;;;;;;5013431;28;20435;-69
2023/07/13 06:04:32;;;;;;;6.23;3.90;;;20.30;99.90;;;;;;5014339;28;21165;-70
2023/07/13 06:07:00;;;;;;;6.07;4.90;;;20.30;99.90;;;;;;5014579;28;20442;-69
2023/07/13 06:09:27;;;;;;;4.40;3.67;;;20.30;99.90;;;;;;5018899;28;21012;-69
2023/07/13 06:11:55;;;;;;;5.77;4.27;;;20.30;99.90;;;;;;5011074;28;20503;-69
2023/07/13 06:14:22;;;;;;;4.87;3.80;;;20.30;99.90;;;;;;5023673;28;20450;-69
2023/07/13 06:16:49;;;;;;;6.63;3.80;;;20.30;99.90;;;;;;5025076;28;20444;-69
2023/07/13 06:19:16;;;;;;;7.00;5.57;;;20.30;99.90;;;;;;5019407;28;20504;-69
2023/07/13 06:21:43;;;;;;;9.30;4.70;;;20.30;99.90;;;;;;5013683;28;20861;-69
2023/07/13 06:24:10;;;;;;;6.80;4.30;;;20.40;99.90;;;;;;5023537;28;20442;-69
2023/07/13 06:26:37;;;;;;;5.70;4.37;;;20.40;99.90;;;;;;5031181;28;20850;-69
2023/07/13 06:29:05;;;;;;;7.60;3.87;;;20.50;99.90;;;;;;5015289;28;20454;-69
2023/07/13 06:31:32;;;;;;;11.67;4.47;;;20.50;99.90;;;;;;5025293;28;20450;-69
2023/07/13 06:33:59;;;;;;;6.50;4.40;;;20.60;99.90;;;;;;5012996;28;20443;-69
2023/07/13 06:36:26;;;;;;;10.40;4.30;;;20.60;99.90;;;;;;5018546;28;20470;-72
2023/07/13 06:38:53;;;;;;;8.43;4.50;;;20.60;99.90;;;;;;5027992;28;20498;-69
2023/07/13 06:41:22;;;;;;;7.83;4.07;;;20.70;99.90;;;;;;5016297;28;20483;-69
2023/07/13 06:43:48;;;;;;;7.40;3.80;;;20.70;99.90;;;;;;5032138;28;20447;-69
2023/07/13 06:46:17;;;;;;;6.10;4.13;;;20.70;99.90;;;;;;5032493;28;20449;-69
2023/07/13 06:48:44;;;;;;;7.20;3.67;;;20.80;99.90;;;;;;5033539;28;20470;-71
2023/07/13 06:51:11;;;;;;;6.83;3.73;;;20.90;99.90;;;;;;5033072;28;20559;-69
2023/07/13 06:53:37;;;;;;;5.57;3.83;;;20.80;99.90;;;;;;5033193;28;20799;-69
2023/07/13 06:56:05;;;;;;;6.53;4.37;;;20.90;99.90;;;;;;5033329;28;20821;-69
2023/07/13 06:58:32;;;;;;;5.10;3.53;;;20.90;99.90;;;;;;5033792;28;20439;-69
2023/07/13 07:00:59;;;;;;;5.33;3.63;;;20.90;99.90;;;;;;5033134;28;20439;-69
2023/07/13 07:03:27;;;;;;;4.13;2.90;;;20.90;99.90;;;;;;5033460;28;20529;-69
2023/07/13 07:05:54;;;;;;;9.57;3.77;;;20.90;99.90;;;;;;5033073;28;20542;-69
2023/07/13 07:08:21;;;;;;;8.50;3.20;;;20.90;99.90;;;;;;5033236;28;20532;-69
2023/07/13 07:10:51;;;;;;;6.07;3.27;;;20.90;99.90;;;;;;5033178;28;20568;-69
2023/07/13 07:13:18;;;;;;;4.30;2.87;;;20.90;99.90;;;;;;5033653;28;20437;-69
2023/07/13 07:15:45;;;;;;;5.60;3.60;;;20.90;99.90;;;;;;5032928;28;20466;-69
2023/07/13 07:18:12;;;;;;;4.30;3.03;;;21.00;99.90;;;;;;5033345;28;20795;-69
2023/07/13 07:20:40;;;;;;;7.13;3.27;;;21.00;99.90;;;;;;5033284;28;20544;-69
2023/07/13 07:23:07;;;;;;;4.77;3.23;;;21.00;99.90;;;;;;5033246;28;20435;-69
2023/07/13 07:25:36;;;;;;;5.80;3.20;;;21.10;99.90;;;;;;5033168;28;20529;-69
2023/07/13 07:28:04;;;;;;;6.07;3.10;;;21.10;99.90;;;;;;5033594;28;20785;-69
2023/07/13 07:30:30;;;;;;;9.10;3.20;;;21.10;99.90;;;;;;5035785;28;20440;-69
2023/07/13 07:32:57;;;;;;;7.27;3.50;;;21.10;99.90;;;;;;5036393;28;20465;-69
2023/07/13 07:35:24;;;;;;;5.60;2.93;;;21.10;99.90;;;;;;5036447;28;20991;-69
2023/07/13 07:37:53;;;;;;;5.43;3.00;;;21.00;99.90;;;;;;5036923;28;20445;-69
2023/07/13 07:40:20;;;;;;;5.87;3.10;;;21.00;99.90;;;;;;5036826;28;20952;-69
2023/07/13 07:42:47;;;;;;;8.27;3.43;;;21.00;99.90;;;;;;5036722;28;20840;-69
2023/07/13 07:45:15;;;;;;;3.70;2.60;;;21.00;99.90;;;;;;5036735;28;20850;-69
2023/07/13 07:47:42;;;;;;;5.40;2.67;;;20.90;99.80;;;;;;5036390;28;20511;-69
2023/07/13 07:50:09;;;;;;;4.77;2.63;;;20.80;98.20;;;;;;5036734;28;20442;-69
2023/07/13 07:52:37;;;;;;;4.93;2.97;;;20.70;97.60;;;;;;5036585;28;20450;-69
2023/07/13 07:55:07;;;;;;;10.03;3.20;;;20.70;97.80;;;;;;5036384;28;20566;-69
2023/07/13 07:57:34;;;;;;;3.30;2.40;;;20.60;98.20;;;;;;5036564;28;20425;-69
2023/07/13 08:00:01;;;;;;;7.33;2.27;;;20.60;98.30;;;;;;5036514;28;20529;-68
2023/07/13 08:02:28;;;;;;;4.40;2.13;;;20.50;97.50;;;;;;5036456;28;20533;-69
2023/07/13 08:04:55;;;;;;;3.57;1.73;;;20.30;96.70;;;;;;5036118;28;21008;-69
2023/07/13 08:07:22;;;;;;;4.47;1.80;;;20.20;96.20;;;;;;5036160;28;20999;-69
2023/07/13 08:09:52;;;;;;;7.67;2.93;;;20.10;95.70;;;;;;5036020;28;20442;-69
2023/07/13 08:12:20;;;;;;;5.43;2.47;;;20.00;95.90;;;;;;5035838;28;20473;-69
2023/07/13 08:14:53;;;;;;;5.63;2.40;;;19.90;96.30;;;;;;5036047;28;20480;-69
2023/07/13 08:17:20;;;;;;;4.67;2.20;;;19.70;97.10;;;;;;5036260;28;20441;-69
2023/07/13 08:19:47;;;;;;;9.37;3.37;;;19.60;97.00;;;;;;5036047;28;20442;-68
2023/07/13 08:22:14;;;;;;;3.67;2.10;;;19.50;96.60;;;;;;5036086;28;20789;-69
2023/07/13 08:24:42;;;;;;;4.70;2.40;;;19.40;97.00;;;;;;5036348;28;20472;-69
2023/07/13 08:27:09;;;;;;;5.30;2.73;;;19.30;97.40;;;;;;5035810;28;20515;-68
2023/07/13 08:29:37;;;;;;;5.17;2.07;;;19.20;97.80;;;;;;5036159;28;20442;-68
2023/07/13 08:32:05;;;;;;;4.37;2.50;;;19.20;98.00;;;;;;5035529;28;20446;-69
2023/07/13 08:34:32;;;;;;;14.00;4.60;;;19.10;97.80;;;;;;5035880;28;20442;-69
2023/07/13 08:36:59;;;;;;;7.23;2.40;;;19.00;98.00;;;;;;5035721;28;20744;-69
2023/07/13 08:39:27;;;;;;;5.60;2.40;;;19.00;98.30;;;;;;5035916;28;20470;-68
2023/07/13 08:42:00;;;;;;;7.40;2.73;;;19.00;98.90;;;;;;5035193;28;20437;-68
2023/07/13 08:44:39;;;;;;;3.83;2.50;;;18.90;99.10;;;;;;5035634;28;20492;-69
2023/07/13 08:47:10;;;;;;;7.23;2.60;;;18.90;98.90;;;;;;5035421;28;20524;-68
2023/07/13 08:49:37;;;;;;;6.63;3.10;;;18.90;99.20;;;;;;5035618;28;20516;-69
2023/07/13 08:52:10;;;;;;;4.80;2.10;;;19.00;99.00;;;;;;5035635;28;20516;-69
2023/07/13 08:54:40;;;;;;;6.40;2.60;;;19.00;99.30;;;;;;5035208;28;20510;-73
2023/07/13 08:57:14;;;;;;;7.90;2.63;;;19.00;99.70;;;;;;5035380;28;20486;-69
2023/07/13 08:59:41;;;;;;;5.10;2.70;;;19.00;99.70;;;;;;5035038;28;20429;-69
2023/07/13 09:02:23;;;;;;;5.27;2.80;;;19.00;99.20;;;;;;5035346;28;20446;-69
2023/07/13 09:04:54;;;;;;;5.37;3.27;;;19.00;99.50;;;;;;5035460;28;20457;-69
2023/07/13 09:07:33;;;;;;;12.03;2.60;;;19.00;99.30;;;;;;5034975;28;20994;-68
2023/07/13 09:10:11;;;;;;;8.13;2.90;;;19.00;99.00;;;;;;5034932;28;20430;-69
2023/07/13 09:12:51;;;;;;;11.53;2.70;;;19.00;99.20;;;;;;5035002;28;20449;-69
2023/07/13 09:15:25;;;;;;;5.33;2.43;;;19.00;99.20;;;;;;5035113;28;20432;-69
2023/07/13 09:17:56;;;;;;;5.90;2.20;;;19.00;98.50;;;;;;5034761;28;20437;-69
2023/07/13 09:20:28;;;;;;;7.67;3.70;;;19.00;98.50;;;;;;5035142;28;20425;-68
2023/07/13 09:22:57;;;;;;;6.63;2.83;;;18.90;99.60;;;;;;5034689;28;20517;-68
2023/07/13 09:25:29;;;;;;;4.83;3.10;;;18.90;99.90;;;;;;5034815;28;20517;-69
2023/07/13 09:28:00;;;;;;;5.83;3.40;;;18.90;99.90;;;;;;5034968;28;20430;-68
2023/07/13 09:30:34;;;;;;;5.57;3.60;;;18.90;99.90;;;;;;5034683;28;20525;-69
2023/07/13 09:33:04;;;;;;;4.97;3.27;;;18.90;99.90;;;;;;5034698;28;20443;-68
2023/07/13 09:35:32;;;;;;;7.60;4.00;;;19.00;99.90;;;;;;5034644;28;20443;-68
2023/07/13 09:38:05;;;;;;;6.87;3.97;;;19.00;99.90;;;;;;5034435;28;20524;-69
2023/07/13 09:40:41;;;;;;;10.30;3.80;;;19.10;99.90;;;;;;5034649;28;20430;-69
2023/07/13 09:43:14;;;;;;;5.33;2.60;;;19.30;99.90;;;;;;5034273;28;20425;-69
2023/07/13 09:45:40;;;;;;;6.73;2.30;;;19.60;98.80;;;;;;5034656;28;20845;-70
2023/07/13 09:48:14;;;;;;;4.83;2.87;;;19.80;98.10;;;;;;5034587;28;20521;-68
2023/07/13 09:50:41;;;;;;;6.83;2.93;;;20.10;97.90;;;;;;5034313;28;20432;-68
2023/07/13 09:53:14;;;;;;;8.13;3.20;;;20.50;97.50;;;;;;5033681;28;20443;-69
2023/07/13 09:55:43;;;;;;;5.90;3.30;;;20.90;95.30;;;;;;5034184;28;20501;-68
2023/07/13 09:58:13;;;;;;;6.33;3.10;;;21.20;94.10;;;;;;5034238;28;20517;-69
2023/07/13 10:00:40;;;;;;;9.80;3.17;;;21.50;92.50;;;;;;5034207;28;20440;-69
2023/07/13 10:03:18;;;;;;;5.47;3.00;;;21.70;90.80;;;;;;5034177;28;20436;-68
2023/07/13 10:05:47;;;;;;;4.47;3.03;;;22.20;90.60;;;;;;5033750;28;20431;-69
2023/07/13 10:08:24;;;;;;;5.07;2.70;;;22.60;86.90;;;;;;5034244;28;20543;-69
2023/07/13 10:10:55;;;;;;;4.30;2.40;;;22.50;87.10;;;;;;5033556;28;21026;-69
2023/07/13 10:13:36;;;;;;;4.40;2.10;;;22.60;87.10;;;;;;5034013;28;20434;-68
2023/07/13 10:16:06;;;;;;;3.23;2.23;;;22.80;84.10;;;;;;5033682;28;20586;-68
2023/07/13 10:18:40;;;;;;;4.47;2.77;;;23.00;83.70;;;;;;5033640;28;20448;-69
2023/07/13 10:21:16;;;;;;;9.43;2.50;;;23.40;84.70;;;;;;5033989;28;20526;-69
2023/07/13 10:23:44;;;;;;;4.97;2.97;;;23.90;78.50;;;;;;5033421;28;20438;-69
2023/07/13 10:26:17;;;;;;;5.30;2.50;;;24.10;75.20;;;;;;5033457;28;20530;-69
2023/07/13 10:28:48;;;;;;;4.83;2.70;;;24.50;75.80;;;;;;5033906;28;20455;-69
2023/07/13 10:31:17;;;;;;;4.83;2.63;;;24.90;74.50;;;;;;5033848;28;20429;-69
2023/07/13 10:33:46;;;;;;;6.33;2.13;;;25.40;72.30;;;;;;5033837;28;20438;-69
2023/07/13 10:36:18;;;;;;;5.37;2.20;;;25.80;71.60;;;;;;5033676;28;20559;-69
2023/07/13 10:38:47;;;;;;;7.53;2.10;;;26.20;69.10;;;;;;5033888;28;20481;-69
2023/07/13 10:41:19;;;;;;;4.77;1.83;;;26.70;65.20;;;;;;5033716;28;20520;-69
2023/07/13 10:43:50;;;;;;;3.70;1.80;;;27.00;62.80;;;;;;5033415;28;20989;-69
2023/07/13 10:46:21;;;;;;;2.97;2.07;;;27.20;61.80;;;;;;5033831;28;20429;-69
2023/07/13 10:48:53;;;;;;;7.83;1.83;;;27.60;58.40;;;;;;5033576;28;20521;-70
2023/07/13 10:51:22;;;;;;;6.70;1.80;;;27.70;56.10;;;;;;5033192;28;20925;-69
2023/07/13 10:54:11;;;;;;;3.93;1.40;;;27.90;54.60;;;;;;5033613;28;20443;-69
2023/07/13 10:56:41;;;;;;;3.30;1.90;;;28.00;54.10;;;;;;5033543;28;20549;-69
2023/07/13 10:59:14;;;;;;;7.20;2.17;;;28.20;54.90;;;;;;5033415;28;20446;-69
2023/07/13 11:01:49;;;;;;;5.30;2.00;;;28.30;50.80;;;;;;5033364;28;20484;-69
2023/07/13 11:04:21;;;;;;;2.10;1.10;;;28.20;49.10;;;;;;5033457;28;20553;-69
2023/07/13 11:09:53;;;;;;;2.57;1.30;;;28.20;48.60;;;;;;4996338;28;20449;-69
2023/07/13 11:12:49;;;;;;;3.87;1.47;;;28.20;46.20;;;;;;4997373;28;20503;-69
2023/07/13 11:15:30;;;;;;;4.03;1.80;;;28.20;46.90;;;;;;4997833;28;20803;-69
2023/07/13 11:18:00;;;;;;;2.77;1.60;;;28.10;46.80;;;;;;5015838;28;20502;-69
2023/07/13 11:20:42;;;;;;;4.30;1.40;;;28.20;48.60;;;;;;5017381;28;20439;-69
2023/07/13 11:23:32;;;;;;;5.43;1.30;;;28.40;45.20;;;;;;5017519;28;20431;-69
2023/07/13 11:26:00;;;;;;;6.83;1.60;;;28.50;43.10;;;;;;5018444;28;20757;-69
2023/07/13 11:28:31;;;;;;;3.30;1.50;;;28.60;45.40;;;;;;5018050;28;20441;-69
2023/07/13 11:31:04;;;;;;;3.93;1.77;;;28.80;44.40;;;;;;5020150;28;20847;-69
2023/07/13 11:33:58;;;;;;;3.23;1.43;;;28.70;40.50;;;;;;5028670;28;20442;-69
2023/07/13 11:36:32;;;;;;;3.70;1.50;;;28.80;42.00;;;;;;5034063;28;20466;-69
2023/07/13 11:39:10;;;;;;;5.27;1.73;;;29.20;39.60;;;;;;5017118;28;20459;-70
2023/07/13 11:41:44;;;;;;;4.30;1.53;;;29.60;39.90;;;;;;5018034;28;20439;-69
2023/07/13 11:44:15;;;;;;;3.70;1.50;;;29.90;40.30;;;;;;5015609;28;20439;-69
2023/07/13 11:46:47;;;;;;;4.97;1.67;;;30.00;41.30;;;;;;5013180;28;20450;-69
2023/07/13 11:49:17;;;;;;;5.50;1.43;;;29.80;40.30;;;;;;5016895;28;20431;-69
2023/07/13 11:51:47;;;;;;;2.90;1.40;;;29.50;39.00;;;;;;5015954;28;20443;-69
2023/07/13 11:54:26;;;;;;;2.57;1.43;;;29.40;40.50;;;;;;5015725;28;20439;-69
2023/07/13 11:56:54;;;;;;;3.53;1.67;;;29.40;41.90;;;;;;5016646;28;20502;-69
2023/07/13 11:59:21;;;;;;;2.87;1.37;;;29.30;41.90;;;;;;5016099;28;20467;-69
2023/07/13 12:01:53;;;;;;;5.90;1.83;;;29.10;43.70;;;;;;5016031;28;20534;-70
2023/07/13 12:04:24;;;;;;;5.33;1.97;;;29.00;43.10;;;;;;5016269;28;20507;-69
2023/07/13 12:06:58;;;;;;;4.53;1.60;;;28.70;41.90;;;;;;5015488;28;20526;-70
2023/07/13 12:09:29;;;;;;;3.20;1.77;;;28.40;42.80;;;;;;5016663;28;20838;-69
2023/07/13 12:11:59;;;;;;;7.13;2.63;;;28.10;43.50;;;;;;5016061;28;20481;-69
2023/07/13 12:14:28;;;;;;;5.83;1.70;;;28.00;46.70;;;;;;5015950;28;20443;-69
2023/07/13 12:16:56;;;;;;;4.10;1.60;;;28.00;46.40;;;;;;5015848;28;20896;-69
2023/07/13 12:19:26;;;;;;;4.33;2.00;;;28.20;44.50;;;;;;5016352;28;20851;-69
2023/07/13 12:21:56;;;;;;;4.83;1.80;;;28.40;44.00;;;;;;5016306;28;20439;-69
2023/07/13 12:24:25;;;;;;;3.90;1.67;;;28.40;44.20;;;;;;5014307;28;20527;-70
2023/07/13 12:26:53;;;;;;;3.47;1.80;;;28.30;43.20;;;;;;5016079;28;20773;-69
2023/07/13 12:29:21;;;;;;;6.10;1.60;;;28.20;43.60;;;;;;5016002;28;20522;-69
2023/07/13 12:31:50;;;;;;;5.03;1.80;;;28.00;42.80;;;;;;5015989;28;21004;-69
2023/07/13 12:34:18;;;;;;;3.47;1.70;;;28.00;45.00;;;;;;5015590;28;20475;-70
2023/07/13 12:36:49;;;;;;;6.73;1.57;;;28.00;46.30;;;;;;5015591;28;20475;-70
2023/07/13 12:39:20;;;;;;;3.10;1.70;;;28.20;47.20;;;;;;5016059;28;20432;-69
2023/07/13 12:41:49;;;;;;;6.60;2.17;;;28.20;46.80;;;;;;5015922;28;20443;-69
2023/07/13 12:44:19;;;;;;;4.80;1.73;;;28.30;46.80;;;;;;5015557;28;20927;-69
2023/07/13 12:46:59;;;;;;;4.40;1.50;;;28.50;47.00;;;;;;5015813;28;20538;-69
2023/07/13 12:49:28;;;;;;;4.00;2.00;;;28.60;46.30;;;;;;5015906;28;20841;-69
2023/07/13 12:52:00;;;;;;;4.47;1.93;;;28.60;45.90;;;;;;5015996;28;20439;-69
2023/07/13 12:54:28;;;;;;;3.33;1.60;;;28.70;43.60;;;;;;5015710;28;20808;-69
2023/07/13 12:56:59;;;;;;;4.27;1.97;;;28.60;44.50;;;;;;5015451;28;20507;-69
2023/07/13 12:59:36;;;;;;;6.03;1.93;;;28.60;43.30;;;;;;5015310;28;20437;-70